sensor_id;sensor_type;location;lat;lon;timestamp;temperature;humidity
38456;DHT22;24237;50.106;20.014;2022-08-16T00:00:53;22.60;99.90
38456;DHT22;24237;50.106;20.014;2022-08-16T00:03:19;22.60;99.90
38456;DHT22;24237;50.106;20.014;2022-08-16T00:05:48;22.60;99.90
38456;DHT22;24237;50.106;20.014;2022-08-16T00:08:26;22.70;99.90
38456;DHT22;24237;50.106;20.014;2022-08-16T00:10:52;22.50;99.90
38456;DHT22;24237;50.106;20.014;2022-08-16T00:13:18;22.50;99.90
38456;DHT22;24237;50.106;20.014;2022-08-16T00:16:03;22.40;99.90
38456;DHT22;24237;50.106;20.014;2022-08-16T00:18:32;22.40;99.90
38456;DHT22;24237;50.106;20.014;2022-08-16T00:20:58;22.30;99.90
38456;DHT22;24237;50.106;20.014;2022-08-16T00:23:24;22.30;99.90
38456;DHT22;24237;50.106;20.014;2022-08-16T00:25:50;22.20;99.90
38456;DHT22;24237;50.106;20.014;2022-08-16T00:28:15;22.20;99.90
38456;DHT22;24237;50.106;20.014;2022-08-16T00:30:41;22.20;99.90
38456;DHT22;24237;50.106;20.014;2022-08-16T00:33:08;22.20;99.90
38456;DHT22;24237;50.106;20.014;2022-08-16T00:35:37;22.20;99.90
38456;DHT22;24237;50.106;20.014;2022-08-16T00:38:05;22.20;99.90
38456;DHT22;24237;50.106;20.014;2022-08-16T00:40:41;22.00;99.90
38456;DHT22;24237;50.106;20.014;2022-08-16T00:43:10;22.10;99.90
38456;DHT22;24237;50.106;20.014;2022-08-16T00:48:30;22.10;99.90
38456;DHT22;24237;50.106;20.014;2022-08-16T00:50:56;22.20;99.90
38456;DHT22;24237;50.106;20.014;2022-08-16T00:53:22;22.30;99.90
38456;DHT22;24237;50.106;20.014;2022-08-16T00:55:50;22.20;99.90
38456;DHT22;24237;50.106;20.014;2022-08-16T00:58:22;22.10;99.90
38456;DHT22;24237;50.106;20.014;2022-08-16T01:00:57;22.00;99.90
38456;DHT22;24237;50.106;20.014;2022-08-16T01:07:06;21.80;99.90
38456;DHT22;24237;50.106;20.014;2022-08-16T01:09:35;22.00;99.90
38456;DHT22;24237;50.106;20.014;2022-08-16T01:18:25;21.80;99.90
38456;DHT22;24237;50.106;20.014;2022-08-16T01:21:01;21.80;99.90
38456;DHT22;24237;50.106;20.014;2022-08-16T01:23:48;21.80;99.90
38456;DHT22;24237;50.106;20.014;2022-08-16T01:26:16;21.80;99.90
38456;DHT22;24237;50.106;20.014;2022-08-16T01:31:48;21.80;99.90
38456;DHT22;24237;50.106;20.014;2022-08-16T01:34:14;21.90;99.90
38456;DHT22;24237;50.106;20.014;2022-08-16T01:36:41;21.70;99.90
38456;DHT22;24237;50.106;20.014;2022-08-16T01:39:10;21.80;99.90
38456;DHT22;24237;50.106;20.014;2022-08-16T01:41:36;21.70;99.90
38456;DHT22;24237;50.106;20.014;2022-08-16T01:44:02;21.80;99.90
38456;DHT22;24237;50.106;20.014;2022-08-16T01:46:50;21.80;99.90
38456;DHT22;24237;50.106;20.014;2022-08-16T01:49:25;21.60;99.90
38456;DHT22;24237;50.106;20.014;2022-08-16T01:52:11;21.80;99.90
38456;DHT22;24237;50.106;20.014;2022-08-16T01:54:38;21.80;99.90
38456;DHT22;24237;50.106;20.014;2022-08-16T01:57:05;21.90;99.90
38456;DHT22;24237;50.106;20.014;2022-08-16T01:59:32;21.70;99.90
38456;DHT22;24237;50.106;20.014;2022-08-16T02:01:58;21.70;99.90
38456;DHT22;24237;50.106;20.014;2022-08-16T02:04:25;21.60;99.90
38456;DHT22;24237;50.106;20.014;2022-08-16T02:06:51;21.60;99.90
38456;DHT22;24237;50.106;20.014;2022-08-16T02:09:19;21.60;99.90
38456;DHT22;24237;50.106;20.014;2022-08-16T02:11:49;21.70;99.90
38456;DHT22;24237;50.106;20.014;2022-08-16T02:14:15;21.90;99.90
38456;DHT22;24237;50.106;20.014;2022-08-16T02:16:41;21.70;99.90
38456;DHT22;24237;50.106;20.014;2022-08-16T02:19:10;21.70;99.90
38456;DHT22;24237;50.106;20.014;2022-08-16T02:21:36;21.70;99.90
38456;DHT22;24237;50.106;20.014;2022-08-16T02:24:02;21.60;99.90
38456;DHT22;24237;50.106;20.014;2022-08-16T02:26:28;21.60;99.90
38456;DHT22;24237;50.106;20.014;2022-08-16T02:28:54;21.50;99.90
38456;DHT22;24237;50.106;20.014;2022-08-16T02:31:20;21.50;99.90
38456;DHT22;24237;50.106;20.014;2022-08-16T02:33:45;21.50;99.90
38456;DHT22;24237;50.106;20.014;2022-08-16T02:36:12;21.60;99.90
38456;DHT22;24237;50.106;20.014;2022-08-16T02:38:38;21.60;99.90
38456;DHT22;24237;50.106;20.014;2022-08-16T02:41:06;21.60;99.90
38456;DHT22;24237;50.106;20.014;2022-08-16T02:43:33;21.70;99.90
38456;DHT22;24237;50.106;20.014;2022-08-16T02:46:00;21.50;99.90
38456;DHT22;24237;50.106;20.014;2022-08-16T02:48:26;21.50;99.90
38456;DHT22;24237;50.106;20.014;2022-08-16T02:50:52;21.50;99.90
38456;DHT22;24237;50.106;20.014;2022-08-16T02:53:18;21.50;99.90
38456;DHT22;24237;50.106;20.014;2022-08-16T02:55:45;21.40;99.90
38456;DHT22;24237;50.106;20.014;2022-08-16T02:58:11;21.50;99.90
38456;DHT22;24237;50.106;20.014;2022-08-16T03:00:37;21.60;99.90
38456;DHT22;24237;50.106;20.014;2022-08-16T03:03:03;21.50;99.90
38456;DHT22;24237;50.106;20.014;2022-08-16T03:05:29;21.60;99.90
38456;DHT22;24237;50.106;20.014;2022-08-16T03:07:56;21.40;99.90
38456;DHT22;24237;50.106;20.014;2022-08-16T03:10:21;21.40;99.90
38456;DHT22;24237;50.106;20.014;2022-08-16T03:12:47;21.50;99.90
38456;DHT22;24237;50.106;20.014;2022-08-16T03:15:15;21.50;99.90
38456;DHT22;24237;50.106;20.014;2022-08-16T03:17:43;21.50;99.90
38456;DHT22;24237;50.106;20.014;2022-08-16T03:20:11;21.40;99.90
38456;DHT22;24237;50.106;20.014;2022-08-16T03:22:37;21.40;99.90
38456;DHT22;24237;50.106;20.014;2022-08-16T03:25:11;21.40;99.90
38456;DHT22;24237;50.106;20.014;2022-08-16T03:27:37;21.30;99.90
38456;DHT22;24237;50.106;20.014;2022-08-16T03:30:13;21.20;99.90
38456;DHT22;24237;50.106;20.014;2022-08-16T03:32:38;21.20;99.90
38456;DHT22;24237;50.106;20.014;2022-08-16T03:35:05;21.30;99.90
38456;DHT22;24237;50.106;20.014;2022-08-16T03:37:32;21.40;99.90
38456;DHT22;24237;50.106;20.014;2022-08-16T03:39:58;21.30;99.90
38456;DHT22;24237;50.106;20.014;2022-08-16T03:42:24;21.30;99.90
38456;DHT22;24237;50.106;20.014;2022-08-16T03:44:49;21.20;99.90
38456;DHT22;24237;50.106;20.014;2022-08-16T03:47:15;21.10;99.90
38456;DHT22;24237;50.106;20.014;2022-08-16T03:49:41;21.10;99.90
38456;DHT22;24237;50.106;20.014;2022-08-16T03:52:07;21.10;99.90
38456;DHT22;24237;50.106;20.014;2022-08-16T03:57:55;21.20;99.90
38456;DHT22;24237;50.106;20.014;2022-08-16T04:00:23;21.20;99.90
38456;DHT22;24237;50.106;20.014;2022-08-16T04:02:52;21.30;99.90
38456;DHT22;24237;50.106;20.014;2022-08-16T04:05:21;21.20;99.90
38456;DHT22;24237;50.106;20.014;2022-08-16T04:07:46;21.10;99.90
38456;DHT22;24237;50.106;20.014;2022-08-16T04:10:13;21.20;99.90
38456;DHT22;24237;50.106;20.014;2022-08-16T04:12:41;21.30;99.90
38456;DHT22;24237;50.106;20.014;2022-08-16T04:15:09;21.20;99.90
38456;DHT22;24237;50.106;20.014;2022-08-16T04:17:35;21.10;99.90
38456;DHT22;24237;50.106;20.014;2022-08-16T04:20:05;21.10;99.90
38456;DHT22;24237;50.106;20.014;2022-08-16T04:22:35;21.10;99.90
38456;DHT22;24237;50.106;20.014;2022-08-16T04:25:01;21.10;99.90
38456;DHT22;24237;50.106;20.014;2022-08-16T04:27:27;21.50;99.90
38456;DHT22;24237;50.106;20.014;2022-08-16T04:29:52;21.60;99.90
38456;DHT22;24237;50.106;20.014;2022-08-16T04:32:18;21.60;99.90
38456;DHT22;24237;50.106;20.014;2022-08-16T04:34:44;21.50;99.90
38456;DHT22;24237;50.106;20.014;2022-08-16T04:37:10;21.70;99.90
38456;DHT22;24237;50.106;20.014;2022-08-16T04:39:36;21.80;99.90
38456;DHT22;24237;50.106;20.014;2022-08-16T04:42:02;21.70;99.90
38456;DHT22;24237;50.106;20.014;2022-08-16T04:44:27;21.50;99.90
38456;DHT22;24237;50.106;20.014;2022-08-16T04:46:53;21.50;99.90
38456;DHT22;24237;50.106;20.014;2022-08-16T04:49:19;21.50;99.90
38456;DHT22;24237;50.106;20.014;2022-08-16T04:51:46;21.50;99.90
38456;DHT22;24237;50.106;20.014;2022-08-16T04:54:11;21.50;99.90
38456;DHT22;24237;50.106;20.014;2022-08-16T04:56:37;21.70;99.90
38456;DHT22;24237;50.106;20.014;2022-08-16T04:59:04;21.70;99.90
38456;DHT22;24237;50.106;20.014;2022-08-16T05:01:30;21.70;99.90
38456;DHT22;24237;50.106;20.014;2022-08-16T05:03:55;21.50;99.90
38456;DHT22;24237;50.106;20.014;2022-08-16T05:06:21;21.40;99.90
38456;DHT22;24237;50.106;20.014;2022-08-16T05:08:47;21.60;99.90
38456;DHT22;24237;50.106;20.014;2022-08-16T05:11:13;21.60;99.90
38456;DHT22;24237;50.106;20.014;2022-08-16T05:13:46;21.50;99.90
38456;DHT22;24237;50.106;20.014;2022-08-16T05:16:24;21.70;99.90
38456;DHT22;24237;50.106;20.014;2022-08-16T05:18:53;21.80;99.90
38456;DHT22;24237;50.106;20.014;2022-08-16T05:21:20;21.80;99.90
38456;DHT22;24237;50.106;20.014;2022-08-16T05:23:46;21.80;99.90
38456;DHT22;24237;50.106;20.014;2022-08-16T05:26:12;22.20;99.90
38456;DHT22;24237;50.106;20.014;2022-08-16T05:28:37;21.90;99.90
38456;DHT22;24237;50.106;20.014;2022-08-16T05:31:03;22.00;99.90
38456;DHT22;24237;50.106;20.014;2022-08-16T05:33:29;21.90;99.90
38456;DHT22;24237;50.106;20.014;2022-08-16T05:35:58;22.00;99.90
38456;DHT22;24237;50.106;20.014;2022-08-16T05:38:23;22.10;99.90
38456;DHT22;24237;50.106;20.014;2022-08-16T05:40:53;22.10;99.90
38456;DHT22;24237;50.106;20.014;2022-08-16T05:43:19;22.10;99.90
38456;DHT22;24237;50.106;20.014;2022-08-16T05:45:45;22.10;99.90
38456;DHT22;24237;50.106;20.014;2022-08-16T05:48:11;22.00;99.90
38456;DHT22;24237;50.106;20.014;2022-08-16T05:50:37;22.20;99.90
38456;DHT22;24237;50.106;20.014;2022-08-16T05:53:08;22.20;99.90
38456;DHT22;24237;50.106;20.014;2022-08-16T05:55:34;22.20;99.90
38456;DHT22;24237;50.106;20.014;2022-08-16T05:58:00;22.20;99.90
38456;DHT22;24237;50.106;20.014;2022-08-16T06:00:26;22.30;99.90
38456;DHT22;24237;50.106;20.014;2022-08-16T06:02:55;22.30;99.90
38456;DHT22;24237;50.106;20.014;2022-08-16T06:05:22;22.40;99.90
38456;DHT22;24237;50.106;20.014;2022-08-16T06:07:48;22.20;99.90
38456;DHT22;24237;50.106;20.014;2022-08-16T06:10:13;22.10;99.90
38456;DHT22;24237;50.106;20.014;2022-08-16T06:12:39;22.20;99.90
38456;DHT22;24237;50.106;20.014;2022-08-16T06:15:11;22.30;99.90
38456;DHT22;24237;50.106;20.014;2022-08-16T06:17:37;22.40;99.90
38456;DHT22;24237;50.106;20.014;2022-08-16T06:20:04;22.60;99.90
38456;DHT22;24237;50.106;20.014;2022-08-16T06:22:31;22.60;99.90
38456;DHT22;24237;50.106;20.014;2022-08-16T06:24:56;22.70;99.90
38456;DHT22;24237;50.106;20.014;2022-08-16T06:27:22;22.50;99.90
38456;DHT22;24237;50.106;20.014;2022-08-16T06:29:48;22.30;99.90
38456;DHT22;24237;50.106;20.014;2022-08-16T06:32:17;22.40;99.90
38456;DHT22;24237;50.106;20.014;2022-08-16T06:34:44;22.70;99.90
38456;DHT22;24237;50.106;20.014;2022-08-16T06:37:09;22.60;99.90
38456;DHT22;24237;50.106;20.014;2022-08-16T06:39:35;22.70;99.90
38456;DHT22;24237;50.106;20.014;2022-08-16T06:42:01;22.90;99.90
38456;DHT22;24237;50.106;20.014;2022-08-16T06:44:26;23.10;99.90
38456;DHT22;24237;50.106;20.014;2022-08-16T06:46:52;23.10;99.90
38456;DHT22;24237;50.106;20.014;2022-08-16T06:49:18;23.10;99.90
38456;DHT22;24237;50.106;20.014;2022-08-16T06:51:43;23.40;99.90
38456;DHT22;24237;50.106;20.014;2022-08-16T06:54:09;23.40;99.90
38456;DHT22;24237;50.106;20.014;2022-08-16T06:56:35;23.50;99.90
38456;DHT22;24237;50.106;20.014;2022-08-16T06:59:04;23.60;99.90
38456;DHT22;24237;50.106;20.014;2022-08-16T07:01:30;23.80;99.90
38456;DHT22;24237;50.106;20.014;2022-08-16T07:03:55;24.00;99.90
38456;DHT22;24237;50.106;20.014;2022-08-16T07:06:21;24.00;99.90
38456;DHT22;24237;50.106;20.014;2022-08-16T07:08:48;23.90;99.90
38456;DHT22;24237;50.106;20.014;2022-08-16T07:11:17;23.80;99.90
38456;DHT22;24237;50.106;20.014;2022-08-16T07:13:45;24.00;99.90
38456;DHT22;24237;50.106;20.014;2022-08-16T07:16:12;24.10;99.90
38456;DHT22;24237;50.106;20.014;2022-08-16T07:18:46;24.30;99.90
38456;DHT22;24237;50.106;20.014;2022-08-16T07:21:32;24.50;99.90
38456;DHT22;24237;50.106;20.014;2022-08-16T07:24:07;24.80;99.90
38456;DHT22;24237;50.106;20.014;2022-08-16T07:26:36;25.10;99.90
38456;DHT22;24237;50.106;20.014;2022-08-16T07:29:02;25.00;99.90
38456;DHT22;24237;50.106;20.014;2022-08-16T07:31:31;25.20;99.90
38456;DHT22;24237;50.106;20.014;2022-08-16T07:34:15;25.30;99.90
38456;DHT22;24237;50.106;20.014;2022-08-16T07:36:41;25.10;99.90
38456;DHT22;24237;50.106;20.014;2022-08-16T07:39:06;25.00;99.90
38456;DHT22;24237;50.106;20.014;2022-08-16T07:41:33;25.00;99.90
38456;DHT22;24237;50.106;20.014;2022-08-16T07:44:01;25.30;99.90
38456;DHT22;24237;50.106;20.014;2022-08-16T07:46:35;25.80;99.90
38456;DHT22;24237;50.106;20.014;2022-08-16T07:49:02;25.70;99.90
38456;DHT22;24237;50.106;20.014;2022-08-16T07:51:35;25.70;99.90
38456;DHT22;24237;50.106;20.014;2022-08-16T07:54:03;25.80;99.90
38456;DHT22;24237;50.106;20.014;2022-08-16T07:56:29;25.90;99.90
38456;DHT22;24237;50.106;20.014;2022-08-16T07:59:01;25.90;99.90
38456;DHT22;24237;50.106;20.014;2022-08-16T08:01:27;26.30;99.90
38456;DHT22;24237;50.106;20.014;2022-08-16T08:03:55;26.20;99.90
38456;DHT22;24237;50.106;20.014;2022-08-16T08:06:24;26.30;99.90
38456;DHT22;24237;50.106;20.014;2022-08-16T08:09:02;26.50;99.90
38456;DHT22;24237;50.106;20.014;2022-08-16T08:11:35;26.70;99.90
38456;DHT22;24237;50.106;20.014;2022-08-16T08:14:01;27.00;99.90
38456;DHT22;24237;50.106;20.014;2022-08-16T08:16:27;27.10;99.90
38456;DHT22;24237;50.106;20.014;2022-08-16T08:18:53;27.10;99.90
38456;DHT22;24237;50.106;20.014;2022-08-16T08:21:25;27.30;99.90
38456;DHT22;24237;50.106;20.014;2022-08-16T08:23:51;27.50;99.90
38456;DHT22;24237;50.106;20.014;2022-08-16T08:26:20;27.70;99.90
38456;DHT22;24237;50.106;20.014;2022-08-16T08:28:46;28.10;99.90
38456;DHT22;24237;50.106;20.014;2022-08-16T08:31:12;28.40;99.90
38456;DHT22;24237;50.106;20.014;2022-08-16T08:33:38;28.70;99.90
38456;DHT22;24237;50.106;20.014;2022-08-16T08:36:40;28.90;99.90
38456;DHT22;24237;50.106;20.014;2022-08-16T08:39:16;29.10;99.90
38456;DHT22;24237;50.106;20.014;2022-08-16T08:41:52;29.60;99.90
38456;DHT22;24237;50.106;20.014;2022-08-16T08:44:19;29.80;99.90
38456;DHT22;24237;50.106;20.014;2022-08-16T08:46:51;29.80;99.90
38456;DHT22;24237;50.106;20.014;2022-08-16T08:49:21;29.70;99.90
38456;DHT22;24237;50.106;20.014;2022-08-16T08:51:59;29.90;99.90
38456;DHT22;24237;50.106;20.014;2022-08-16T08:54:27;29.70;99.90
38456;DHT22;24237;50.106;20.014;2022-08-16T08:56:53;29.60;99.90
38456;DHT22;24237;50.106;20.014;2022-08-16T08:59:19;29.60;99.90
38456;DHT22;24237;50.106;20.014;2022-08-16T09:01:49;30.00;99.90
38456;DHT22;24237;50.106;20.014;2022-08-16T09:04:15;29.70;99.90
38456;DHT22;24237;50.106;20.014;2022-08-16T09:06:42;29.90;99.90
38456;DHT22;24237;50.106;20.014;2022-08-16T09:09:08;29.70;99.90
38456;DHT22;24237;50.106;20.014;2022-08-16T09:11:34;29.90;99.90
38456;DHT22;24237;50.106;20.014;2022-08-16T09:14:01;29.90;99.90
38456;DHT22;24237;50.106;20.014;2022-08-16T09:16:27;29.60;99.90
38456;DHT22;24237;50.106;20.014;2022-08-16T09:18:53;29.60;99.90
38456;DHT22;24237;50.106;20.014;2022-08-16T09:21:20;29.70;99.90
38456;DHT22;24237;50.106;20.014;2022-08-16T09:23:46;30.20;99.90
38456;DHT22;24237;50.106;20.014;2022-08-16T09:26:12;30.00;99.90
38456;DHT22;24237;50.106;20.014;2022-08-16T09:28:42;29.40;99.90
38456;DHT22;24237;50.106;20.014;2022-08-16T09:31:09;29.20;99.90
38456;DHT22;24237;50.106;20.014;2022-08-16T09:33:35;29.30;99.90
38456;DHT22;24237;50.106;20.014;2022-08-16T09:36:00;29.40;99.90
38456;DHT22;24237;50.106;20.014;2022-08-16T09:38:26;29.50;99.90
38456;DHT22;24237;50.106;20.014;2022-08-16T09:40:52;29.60;99.90
38456;DHT22;24237;50.106;20.014;2022-08-16T09:43:19;30.00;99.90
38456;DHT22;24237;50.106;20.014;2022-08-16T09:45:46;30.40;99.90
38456;DHT22;24237;50.106;20.014;2022-08-16T09:48:13;30.50;99.90
38456;DHT22;24237;50.106;20.014;2022-08-16T09:50:41;30.50;99.90
38456;DHT22;24237;50.106;20.014;2022-08-16T09:53:11;30.90;99.90
38456;DHT22;24237;50.106;20.014;2022-08-16T09:55:39;30.60;99.90
38456;DHT22;24237;50.106;20.014;2022-08-16T09:58:11;30.70;99.90
38456;DHT22;24237;50.106;20.014;2022-08-16T10:00:37;30.80;99.90
38456;DHT22;24237;50.106;20.014;2022-08-16T10:03:03;30.70;99.90
38456;DHT22;24237;50.106;20.014;2022-08-16T10:05:31;30.90;99.90
38456;DHT22;24237;50.106;20.014;2022-08-16T10:07:57;31.10;99.90
38456;DHT22;24237;50.106;20.014;2022-08-16T10:10:24;31.20;99.90
38456;DHT22;24237;50.106;20.014;2022-08-16T10:12:55;31.20;99.90
38456;DHT22;24237;50.106;20.014;2022-08-16T10:15:37;31.20;99.90
38456;DHT22;24237;50.106;20.014;2022-08-16T10:18:05;31.30;99.90
38456;DHT22;24237;50.106;20.014;2022-08-16T10:20:37;31.40;99.90
38456;DHT22;24237;50.106;20.014;2022-08-16T10:23:05;31.70;99.90
38456;DHT22;24237;50.106;20.014;2022-08-16T10:25:32;31.80;99.90
38456;DHT22;24237;50.106;20.014;2022-08-16T10:27:57;32.10;99.90
38456;DHT22;24237;50.106;20.014;2022-08-16T10:30:24;32.10;99.90
38456;DHT22;24237;50.106;20.014;2022-08-16T10:32:59;32.10;99.70
38456;DHT22;24237;50.106;20.014;2022-08-16T10:35:25;32.20;99.60
38456;DHT22;24237;50.106;20.014;2022-08-16T10:37:51;32.60;99.60
38456;DHT22;24237;50.106;20.014;2022-08-16T10:40:17;32.80;99.40
38456;DHT22;24237;50.106;20.014;2022-08-16T10:42:43;32.60;98.80
38456;DHT22;24237;50.106;20.014;2022-08-16T10:45:09;32.50;99.00
38456;DHT22;24237;50.106;20.014;2022-08-16T10:47:35;32.40;98.00
38456;DHT22;24237;50.106;20.014;2022-08-16T10:50:05;32.40;97.90
38456;DHT22;24237;50.106;20.014;2022-08-16T10:52:31;32.40;97.70
38456;DHT22;24237;50.106;20.014;2022-08-16T10:54:58;32.60;97.50
38456;DHT22;24237;50.106;20.014;2022-08-16T10:57:27;33.00;97.40
38456;DHT22;24237;50.106;20.014;2022-08-16T10:59:56;33.10;97.30
38456;DHT22;24237;50.106;20.014;2022-08-16T11:02:22;33.50;97.50
38456;DHT22;24237;50.106;20.014;2022-08-16T11:04:51;33.50;97.10
38456;DHT22;24237;50.106;20.014;2022-08-16T11:07:19;33.60;97.80
38456;DHT22;24237;50.106;20.014;2022-08-16T11:09:44;33.90;96.00
38456;DHT22;24237;50.106;20.014;2022-08-16T11:12:10;33.90;95.70
38456;DHT22;24237;50.106;20.014;2022-08-16T11:14:37;33.90;95.30
38456;DHT22;24237;50.106;20.014;2022-08-16T11:17:03;33.90;95.40
38456;DHT22;24237;50.106;20.014;2022-08-16T11:19:31;33.60;96.50
38456;DHT22;24237;50.106;20.014;2022-08-16T11:21:57;33.30;96.60
38456;DHT22;24237;50.106;20.014;2022-08-16T11:24:24;33.40;96.70
38456;DHT22;24237;50.106;20.014;2022-08-16T11:26:56;33.20;96.50
38456;DHT22;24237;50.106;20.014;2022-08-16T11:29:24;33.60;96.50
38456;DHT22;24237;50.106;20.014;2022-08-16T11:31:50;34.00;95.90
38456;DHT22;24237;50.106;20.014;2022-08-16T11:34:16;33.70;96.30
38456;DHT22;24237;50.106;20.014;2022-08-16T11:36:45;33.20;96.90
38456;DHT22;24237;50.106;20.014;2022-08-16T11:39:11;33.10;97.10
38456;DHT22;24237;50.106;20.014;2022-08-16T11:41:39;33.20;97.20
38456;DHT22;24237;50.106;20.014;2022-08-16T11:44:05;33.50;97.40
38456;DHT22;24237;50.106;20.014;2022-08-16T11:46:31;34.20;96.80
38456;DHT22;24237;50.106;20.014;2022-08-16T11:48:59;33.90;96.30
38456;DHT22;24237;50.106;20.014;2022-08-16T11:51:33;33.70;97.30
38456;DHT22;24237;50.106;20.014;2022-08-16T11:53:59;33.20;97.50
38456;DHT22;24237;50.106;20.014;2022-08-16T11:56:26;33.30;97.10
38456;DHT22;24237;50.106;20.014;2022-08-16T11:58:51;33.50;97.30
38456;DHT22;24237;50.106;20.014;2022-08-16T12:01:20;33.40;97.20
38456;DHT22;24237;50.106;20.014;2022-08-16T12:03:46;33.80;97.00
38456;DHT22;24237;50.106;20.014;2022-08-16T12:06:15;34.40;96.40
38456;DHT22;24237;50.106;20.014;2022-08-16T12:08:43;34.60;96.00
38456;DHT22;24237;50.106;20.014;2022-08-16T12:11:16;34.20;96.20
38456;DHT22;24237;50.106;20.014;2022-08-16T12:13:44;34.20;96.40
38456;DHT22;24237;50.106;20.014;2022-08-16T12:16:14;34.10;95.70
38456;DHT22;24237;50.106;20.014;2022-08-16T12:18:40;34.00;95.60
38456;DHT22;24237;50.106;20.014;2022-08-16T12:21:06;34.10;95.70
38456;DHT22;24237;50.106;20.014;2022-08-16T12:23:35;33.70;96.10
38456;DHT22;24237;50.106;20.014;2022-08-16T12:26:06;33.90;95.80
38456;DHT22;24237;50.106;20.014;2022-08-16T12:28:32;34.50;95.30
38456;DHT22;24237;50.106;20.014;2022-08-16T12:30:58;34.30;95.20
38456;DHT22;24237;50.106;20.014;2022-08-16T12:33:27;34.60;95.10
38456;DHT22;24237;50.106;20.014;2022-08-16T12:35:58;34.90;94.50
38456;DHT22;24237;50.106;20.014;2022-08-16T12:38:24;34.30;94.50
38456;DHT22;24237;50.106;20.014;2022-08-16T12:40:50;33.70;94.30
38456;DHT22;24237;50.106;20.014;2022-08-16T12:43:19;33.30;93.90
38456;DHT22;24237;50.106;20.014;2022-08-16T12:45:50;33.00;94.20
38456;DHT22;24237;50.106;20.014;2022-08-16T12:48:20;32.70;94.10
38456;DHT22;24237;50.106;20.014;2022-08-16T12:51:07;32.80;94.40
38456;DHT22;24237;50.106;20.014;2022-08-16T12:53:33;32.50;94.30
38456;DHT22;24237;50.106;20.014;2022-08-16T12:56:00;32.40;94.40
38456;DHT22;24237;50.106;20.014;2022-08-16T12:58:27;32.30;94.50
38456;DHT22;24237;50.106;20.014;2022-08-16T13:00:55;32.20;94.00
38456;DHT22;24237;50.106;20.014;2022-08-16T13:03:20;32.40;94.10
38456;DHT22;24237;50.106;20.014;2022-08-16T13:05:46;32.00;94.30
38456;DHT22;24237;50.106;20.014;2022-08-16T13:08:16;31.70;96.00
38456;DHT22;24237;50.106;20.014;2022-08-16T13:10:45;31.70;96.80
38456;DHT22;24237;50.106;20.014;2022-08-16T13:13:16;31.40;97.30
38456;DHT22;24237;50.106;20.014;2022-08-16T13:16:00;31.20;97.50
38456;DHT22;24237;50.106;20.014;2022-08-16T13:18:28;31.20;97.90
38456;DHT22;24237;50.106;20.014;2022-08-16T13:20:57;31.20;97.90
38456;DHT22;24237;50.106;20.014;2022-08-16T13:23:23;31.20;98.00
38456;DHT22;24237;50.106;20.014;2022-08-16T13:25:50;31.20;98.20
38456;DHT22;24237;50.106;20.014;2022-08-16T13:28:17;31.20;98.00
38456;DHT22;24237;50.106;20.014;2022-08-16T13:30:47;31.00;98.10
38456;DHT22;24237;50.106;20.014;2022-08-16T13:33:25;31.00;98.10
38456;DHT22;24237;50.106;20.014;2022-08-16T13:35:52;31.10;98.10
38456;DHT22;24237;50.106;20.014;2022-08-16T13:38:18;31.10;98.30
38456;DHT22;24237;50.106;20.014;2022-08-16T13:40:44;31.00;98.60
38456;DHT22;24237;50.106;20.014;2022-08-16T13:43:10;31.00;98.80
38456;DHT22;24237;50.106;20.014;2022-08-16T13:45:35;31.00;98.50
38456;DHT22;24237;50.106;20.014;2022-08-16T13:48:02;30.90;98.70
38456;DHT22;24237;50.106;20.014;2022-08-16T13:50:30;30.70;98.50
38456;DHT22;24237;50.106;20.014;2022-08-16T13:52:56;30.80;98.10
38456;DHT22;24237;50.106;20.014;2022-08-16T13:55:22;30.90;98.40
38456;DHT22;24237;50.106;20.014;2022-08-16T13:57:48;31.00;97.60
38456;DHT22;24237;50.106;20.014;2022-08-16T14:00:17;30.90;97.60
38456;DHT22;24237;50.106;20.014;2022-08-16T14:02:44;31.00;97.30
38456;DHT22;24237;50.106;20.014;2022-08-16T14:05:10;30.70;97.50
38456;DHT22;24237;50.106;20.014;2022-08-16T14:07:36;30.60;97.40
38456;DHT22;24237;50.106;20.014;2022-08-16T14:10:07;30.70;97.70
38456;DHT22;24237;50.106;20.014;2022-08-16T14:12:34;30.70;97.50
38456;DHT22;24237;50.106;20.014;2022-08-16T14:15:04;30.70;97.40
38456;DHT22;24237;50.106;20.014;2022-08-16T14:17:30;30.50;97.70
38456;DHT22;24237;50.106;20.014;2022-08-16T14:19:58;30.60;97.90
38456;DHT22;24237;50.106;20.014;2022-08-16T14:22:27;30.70;98.00
38456;DHT22;24237;50.106;20.014;2022-08-16T14:24:55;31.00;97.80
38456;DHT22;24237;50.106;20.014;2022-08-16T14:27:26;31.00;97.50
38456;DHT22;24237;50.106;20.014;2022-08-16T14:29:52;31.30;97.40
38456;DHT22;24237;50.106;20.014;2022-08-16T14:32:20;31.50;97.20
38456;DHT22;24237;50.106;20.014;2022-08-16T14:34:46;31.80;97.10
38456;DHT22;24237;50.106;20.014;2022-08-16T14:37:12;32.00;96.60
38456;DHT22;24237;50.106;20.014;2022-08-16T14:39:37;32.00;96.70
38456;DHT22;24237;50.106;20.014;2022-08-16T14:42:12;32.10;96.60
38456;DHT22;24237;50.106;20.014;2022-08-16T14:44:38;32.40;96.10
38456;DHT22;24237;50.106;20.014;2022-08-16T14:47:05;32.80;97.10
38456;DHT22;24237;50.106;20.014;2022-08-16T14:49:32;33.00;97.20
38456;DHT22;24237;50.106;20.014;2022-08-16T14:52:07;33.10;97.50
38456;DHT22;24237;50.106;20.014;2022-08-16T14:54:34;32.80;97.90
38456;DHT22;24237;50.106;20.014;2022-08-16T14:57:00;32.40;98.50
38456;DHT22;24237;50.106;20.014;2022-08-16T14:59:31;32.20;98.90
38456;DHT22;24237;50.106;20.014;2022-08-16T15:01:58;32.20;99.10
38456;DHT22;24237;50.106;20.014;2022-08-16T15:04:24;31.90;99.10
38456;DHT22;24237;50.106;20.014;2022-08-16T15:06:50;31.90;99.20
38456;DHT22;24237;50.106;20.014;2022-08-16T15:09:16;32.20;98.90
38456;DHT22;24237;50.106;20.014;2022-08-16T15:11:42;32.50;98.70
38456;DHT22;24237;50.106;20.014;2022-08-16T15:14:18;32.50;98.40
38456;DHT22;24237;50.106;20.014;2022-08-16T15:16:43;32.30;98.40
38456;DHT22;24237;50.106;20.014;2022-08-16T15:19:09;32.20;98.60
38456;DHT22;24237;50.106;20.014;2022-08-16T15:21:35;32.20;98.50
38456;DHT22;24237;50.106;20.014;2022-08-16T15:24:01;32.10;98.60
38456;DHT22;24237;50.106;20.014;2022-08-16T15:26:27;31.90;98.80
38456;DHT22;24237;50.106;20.014;2022-08-16T15:28:53;32.00;98.50
38456;DHT22;24237;50.106;20.014;2022-08-16T15:31:19;32.30;98.20
38456;DHT22;24237;50.106;20.014;2022-08-16T15:33:47;32.40;97.60
38456;DHT22;24237;50.106;20.014;2022-08-16T15:36:15;32.40;96.60
38456;DHT22;24237;50.106;20.014;2022-08-16T15:38:44;32.10;96.20